sensor_id;sensor_type;location;lat;lon;timestamp;P1;durP1;ratioP1;P2;durP2;ratioP2
21661;SDS011;10992;48.170;8.596;2023-08-08T00:01:54;2.15;;;1.73;;
21661;SDS011;10992;48.170;8.596;2023-08-08T00:04:22;3.30;;;2.15;;
21661;SDS011;10992;48.170;8.596;2023-08-08T00:06:49;3.25;;;2.03;;
21661;SDS011;10992;48.170;8.596;2023-08-08T00:09:16;3.92;;;1.83;;
21661;SDS011;10992;48.170;8.596;2023-08-08T00:11:43;2.55;;;2.00;;
21661;SDS011;10992;48.170;8.596;2023-08-08T00:14:10;2.92;;;1.98;;
21661;SDS011;10992;48.170;8.596;2023-08-08T00:16:37;2.58;;;1.90;;
21661;SDS011;10992;48.170;8.596;2023-08-08T00:19:04;4.05;;;1.90;;
21661;SDS011;10992;48.170;8.596;2023-08-08T00:21:31;2.58;;;1.77;;
21661;SDS011;10992;48.170;8.596;2023-08-08T00:23:58;3.90;;;1.90;;
21661;SDS011;10992;48.170;8.596;2023-08-08T00:26:24;3.25;;;2.10;;
21661;SDS011;10992;48.170;8.596;2023-08-08T00:28:51;3.42;;;2.17;;
21661;SDS011;10992;48.170;8.596;2023-08-08T00:31:19;2.88;;;2.03;;
21661;SDS011;10992;48.170;8.596;2023-08-08T00:33:46;5.05;;;2.20;;
21661;SDS011;10992;48.170;8.596;2023-08-08T00:36:13;3.70;;;2.20;;
21661;SDS011;10992;48.170;8.596;2023-08-08T00:38:40;3.67;;;1.92;;
21661;SDS011;10992;48.170;8.596;2023-08-08T00:41:07;3.35;;;2.17;;
21661;SDS011;10992;48.170;8.596;2023-08-08T00:43:34;4.68;;;2.13;;
21661;SDS011;10992;48.170;8.596;2023-08-08T00:46:00;2.45;;;1.85;;
21661;SDS011;10992;48.170;8.596;2023-08-08T00:48:27;4.97;;;2.28;;
21661;SDS011;10992;48.170;8.596;2023-08-08T00:50:55;2.45;;;1.90;;
21661;SDS011;10992;48.170;8.596;2023-08-08T00:53:22;2.28;;;1.98;;
21661;SDS011;10992;48.170;8.596;2023-08-08T00:55:53;4.07;;;1.70;;
21661;SDS011;10992;48.170;8.596;2023-08-08T00:58:20;3.45;;;2.00;;
21661;SDS011;10992;48.170;8.596;2023-08-08T01:00:47;3.55;;;1.85;;
21661;SDS011;10992;48.170;8.596;2023-08-08T01:03:14;2.85;;;2.15;;
21661;SDS011;10992;48.170;8.596;2023-08-08T01:05:43;3.28;;;1.90;;
21661;SDS011;10992;48.170;8.596;2023-08-08T01:08:19;3.70;;;2.17;;
21661;SDS011;10992;48.170;8.596;2023-08-08T01:10:53;2.38;;;2.05;;
21661;SDS011;10992;48.170;8.596;2023-08-08T01:13:21;2.55;;;2.05;;
21661;SDS011;10992;48.170;8.596;2023-08-08T01:15:49;6.55;;;1.73;;
21661;SDS011;10992;48.170;8.596;2023-08-08T01:18:19;3.30;;;1.60;;
21661;SDS011;10992;48.170;8.596;2023-08-08T01:20:46;3.22;;;1.50;;
21661;SDS011;10992;48.170;8.596;2023-08-08T01:23:28;2.80;;;2.00;;
21661;SDS011;10992;48.170;8.596;2023-08-08T01:25:59;3.03;;;2.20;;
21661;SDS011;10992;48.170;8.596;2023-08-08T01:28:27;3.22;;;1.67;;
21661;SDS011;10992;48.170;8.596;2023-08-08T01:30:54;2.92;;;2.50;;
21661;SDS011;10992;48.170;8.596;2023-08-08T01:33:21;2.55;;;1.90;;
21661;SDS011;10992;48.170;8.596;2023-08-08T01:35:58;4.20;;;2.03;;
21661;SDS011;10992;48.170;8.596;2023-08-08T01:38:33;3.10;;;2.25;;
21661;SDS011;10992;48.170;8.596;2023-08-08T01:41:07;3.70;;;1.88;;
21661;SDS011;10992;48.170;8.596;2023-08-08T01:43:35;2.67;;;2.00;;
21661;SDS011;10992;48.170;8.596;2023-08-08T01:46:05;3.78;;;1.75;;
21661;SDS011;10992;48.170;8.596;2023-08-08T01:48:33;2.38;;;1.98;;
21661;SDS011;10992;48.170;8.596;2023-08-08T01:51:00;3.03;;;1.75;;
21661;SDS011;10992;48.170;8.596;2023-08-08T01:53:27;4.93;;;2.17;;
21661;SDS011;10992;48.170;8.596;2023-08-08T01:55:54;2.65;;;2.20;;
21661;SDS011;10992;48.170;8.596;2023-08-08T01:58:21;3.25;;;2.10;;
21661;SDS011;10992;48.170;8.596;2023-08-08T02:00:48;3.72;;;2.20;;
21661;SDS011;10992;48.170;8.596;2023-08-08T02:03:15;3.90;;;2.38;;
21661;SDS011;10992;48.170;8.596;2023-08-08T02:05:42;3.92;;;2.20;;
21661;SDS011;10992;48.170;8.596;2023-08-08T02:08:09;2.58;;;1.80;;
21661;SDS011;10992;48.170;8.596;2023-08-08T02:10:36;3.15;;;2.13;;
21661;SDS011;10992;48.170;8.596;2023-08-08T02:13:03;3.53;;;2.20;;
21661;SDS011;10992;48.170;8.596;2023-08-08T02:15:30;4.72;;;2.00;;
21661;SDS011;10992;48.170;8.596;2023-08-08T02:17:57;2.72;;;1.80;;
21661;SDS011;10992;48.170;8.596;2023-08-08T02:20:26;2.90;;;1.83;;
21661;SDS011;10992;48.170;8.596;2023-08-08T02:22:52;3.20;;;2.00;;
21661;SDS011;10992;48.170;8.596;2023-08-08T02:25:19;2.08;;;1.77;;
21661;SDS011;10992;48.170;8.596;2023-08-08T02:27:46;4.05;;;2.08;;
21661;SDS011;10992;48.170;8.596;2023-08-08T02:30:13;3.28;;;2.03;;
21661;SDS011;10992;48.170;8.596;2023-08-08T02:32:40;2.88;;;1.75;;
21661;SDS011;10992;48.170;8.596;2023-08-08T02:35:08;2.95;;;1.98;;
21661;SDS011;10992;48.170;8.596;2023-08-08T02:37:35;3.88;;;1.90;;
21661;SDS011;10992;48.170;8.596;2023-08-08T02:40:02;4.88;;;1.73;;
21661;SDS011;10992;48.170;8.596;2023-08-08T02:42:31;2.30;;;1.75;;
21661;SDS011;10992;48.170;8.596;2023-08-08T02:44:57;3.47;;;1.88;;
21661;SDS011;10992;48.170;8.596;2023-08-08T02:47:25;3.00;;;1.95;;
21661;SDS011;10992;48.170;8.596;2023-08-08T02:49:52;6.25;;;2.38;;
21661;SDS011;10992;48.170;8.596;2023-08-08T02:52:19;3.90;;;2.05;;
21661;SDS011;10992;48.170;8.596;2023-08-08T02:54:45;3.10;;;1.73;;
21661;SDS011;10992;48.170;8.596;2023-08-08T02:57:12;2.33;;;1.75;;
21661;SDS011;10992;48.170;8.596;2023-08-08T02:59:40;2.25;;;1.80;;
21661;SDS011;10992;48.170;8.596;2023-08-08T03:02:07;5.68;;;2.35;;
21661;SDS011;10992;48.170;8.596;2023-08-08T03:04:37;3.05;;;1.98;;
21661;SDS011;10992;48.170;8.596;2023-08-08T03:07:05;2.58;;;1.98;;
21661;SDS011;10992;48.170;8.596;2023-08-08T03:09:34;2.78;;;1.80;;
21661;SDS011;10992;48.170;8.596;2023-08-08T03:12:01;2.35;;;1.80;;
21661;SDS011;10992;48.170;8.596;2023-08-08T03:14:31;2.60;;;2.08;;
21661;SDS011;10992;48.170;8.596;2023-08-08T03:16:59;2.75;;;1.85;;
21661;SDS011;10992;48.170;8.596;2023-08-08T03:19:27;2.17;;;1.80;;
21661;SDS011;10992;48.170;8.596;2023-08-08T03:21:56;2.22;;;1.77;;
21661;SDS011;10992;48.170;8.596;2023-08-08T03:24:24;3.55;;;2.30;;
21661;SDS011;10992;48.170;8.596;2023-08-08T03:26:51;5.05;;;2.60;;
21661;SDS011;10992;48.170;8.596;2023-08-08T03:29:18;3.45;;;1.67;;
21661;SDS011;10992;48.170;8.596;2023-08-08T03:31:47;3.47;;;2.03;;
21661;SDS011;10992;48.170;8.596;2023-08-08T03:34:15;2.88;;;1.77;;
21661;SDS011;10992;48.170;8.596;2023-08-08T03:36:42;3.22;;;2.17;;
21661;SDS011;10992;48.170;8.596;2023-08-08T03:39:09;3.47;;;1.70;;
21661;SDS011;10992;48.170;8.596;2023-08-08T03:41:37;3.42;;;2.03;;
21661;SDS011;10992;48.170;8.596;2023-08-08T03:44:04;1.73;;;1.50;;
21661;SDS011;10992;48.170;8.596;2023-08-08T03:46:31;2.58;;;1.80;;
21661;SDS011;10992;48.170;8.596;2023-08-08T03:48:58;3.30;;;2.10;;
21661;SDS011;10992;48.170;8.596;2023-08-08T03:51:25;2.20;;;1.70;;
21661;SDS011;10992;48.170;8.596;2023-08-08T03:53:52;3.78;;;1.85;;
21661;SDS011;10992;48.170;8.596;2023-08-08T03:56:19;3.92;;;1.75;;
21661;SDS011;10992;48.170;8.596;2023-08-08T03:58:47;2.28;;;1.63;;
21661;SDS011;10992;48.170;8.596;2023-08-08T04:01:14;1.73;;;1.30;;
21661;SDS011;10992;48.170;8.596;2023-08-08T04:03:41;3.08;;;1.95;;
21661;SDS011;10992;48.170;8.596;2023-08-08T04:06:08;4.10;;;1.85;;
21661;SDS011;10992;48.170;8.596;2023-08-08T04:08:35;2.38;;;1.63;;
21661;SDS011;10992;48.170;8.596;2023-08-08T04:11:02;2.50;;;1.63;;
21661;SDS011;10992;48.170;8.596;2023-08-08T04:13:29;3.85;;;1.60;;
21661;SDS011;10992;48.170;8.596;2023-08-08T04:15:56;2.92;;;1.70;;
21661;SDS011;10992;48.170;8.596;2023-08-08T04:18:23;3.70;;;1.83;;
21661;SDS011;10992;48.170;8.596;2023-08-08T04:20:50;2.58;;;1.90;;
21661;SDS011;10992;48.170;8.596;2023-08-08T04:23:17;2.42;;;1.65;;
21661;SDS011;10992;48.170;8.596;2023-08-08T04:25:44;4.28;;;1.98;;
21661;SDS011;10992;48.170;8.596;2023-08-08T04:28:11;7.28;;;1.70;;
21661;SDS011;10992;48.170;8.596;2023-08-08T04:30:38;4.22;;;2.05;;
21661;SDS011;10992;48.170;8.596;2023-08-08T04:33:05;4.00;;;2.08;;
21661;SDS011;10992;48.170;8.596;2023-08-08T04:35:32;2.92;;;1.70;;
21661;SDS011;10992;48.170;8.596;2023-08-08T04:37:59;2.38;;;1.77;;
21661;SDS011;10992;48.170;8.596;2023-08-08T04:40:26;4.05;;;2.25;;
21661;SDS011;10992;48.170;8.596;2023-08-08T04:42:53;4.03;;;2.08;;
21661;SDS011;10992;48.170;8.596;2023-08-08T04:45:20;2.00;;;1.70;;
21661;SDS011;10992;48.170;8.596;2023-08-08T04:47:47;3.28;;;1.80;;
21661;SDS011;10992;48.170;8.596;2023-08-08T04:50:14;3.53;;;1.92;;
21661;SDS011;10992;48.170;8.596;2023-08-08T04:52:41;2.17;;;1.75;;
21661;SDS011;10992;48.170;8.596;2023-08-08T04:55:08;4.22;;;1.90;;
21661;SDS011;10992;48.170;8.596;2023-08-08T04:57:36;2.88;;;1.80;;
21661;SDS011;10992;48.170;8.596;2023-08-08T05:00:03;5.38;;;1.70;;
21661;SDS011;10992;48.170;8.596;2023-08-08T05:02:33;2.22;;;1.48;;
21661;SDS011;10992;48.170;8.596;2023-08-08T05:05:00;4.93;;;1.73;;
21661;SDS011;10992;48.170;8.596;2023-08-08T05:07:27;2.13;;;1.52;;
21661;SDS011;10992;48.170;8.596;2023-08-08T05:09:54;2.58;;;1.65;;
21661;SDS011;10992;48.170;8.596;2023-08-08T05:12:21;3.17;;;1.73;;
21661;SDS011;10992;48.170;8.596;2023-08-08T05:14:48;2.25;;;1.73;;
21661;SDS011;10992;48.170;8.596;2023-08-08T05:17:15;1.88;;;1.20;;
21661;SDS011;10992;48.170;8.596;2023-08-08T05:19:42;2.58;;;1.60;;
21661;SDS011;10992;48.170;8.596;2023-08-08T05:22:09;2.30;;;1.30;;
21661;SDS011;10992;48.170;8.596;2023-08-08T05:24:35;2.10;;;1.30;;
21661;SDS011;10992;48.170;8.596;2023-08-08T05:27:02;2.60;;;1.40;;
21661;SDS011;10992;48.170;8.596;2023-08-08T05:29:30;2.45;;;1.45;;
21661;SDS011;10992;48.170;8.596;2023-08-08T05:31:57;1.77;;;1.17;;
21661;SDS011;10992;48.170;8.596;2023-08-08T05:34:24;1.27;;;1.13;;
21661;SDS011;10992;48.170;8.596;2023-08-08T05:36:51;3.17;;;1.40;;
21661;SDS011;10992;48.170;8.596;2023-08-08T05:39:39;3.42;;;1.30;;
21661;SDS011;10992;48.170;8.596;2023-08-08T05:42:06;2.20;;;1.52;;
21661;SDS011;10992;48.170;8.596;2023-08-08T05:44:33;1.67;;;1.17;;
21661;SDS011;10992;48.170;8.596;2023-08-08T05:47:00;2.28;;;1.75;;
21661;SDS011;10992;48.170;8.596;2023-08-08T05:49:27;2.25;;;1.55;;
21661;SDS011;10992;48.170;8.596;2023-08-08T05:51:54;1.25;;;0.88;;
21661;SDS011;10992;48.170;8.596;2023-08-08T05:54:21;3.42;;;1.55;;
21661;SDS011;10992;48.170;8.596;2023-08-08T05:56:48;2.10;;;1.77;;
21661;SDS011;10992;48.170;8.596;2023-08-08T05:59:15;2.78;;;1.25;;
21661;SDS011;10992;48.170;8.596;2023-08-08T06:01:42;2.25;;;1.15;;
21661;SDS011;10992;48.170;8.596;2023-08-08T06:04:11;1.55;;;1.25;;
21661;SDS011;10992;48.170;8.596;2023-08-08T06:06:38;4.38;;;1.13;;
21661;SDS011;10992;48.170;8.596;2023-08-08T06:09:05;1.92;;;1.10;;
21661;SDS011;10992;48.170;8.596;2023-08-08T06:11:32;1.88;;;1.20;;
21661;SDS011;10992;48.170;8.596;2023-08-08T06:13:59;1.63;;;0.90;;
21661;SDS011;10992;48.170;8.596;2023-08-08T06:16:26;1.40;;;0.90;;
21661;SDS011;10992;48.170;8.596;2023-08-08T06:18:53;2.45;;;1.23;;
21661;SDS011;10992;48.170;8.596;2023-08-08T06:21:20;2.10;;;1.20;;
21661;SDS011;10992;48.170;8.596;2023-08-08T06:23:47;3.53;;;1.13;;
21661;SDS011;10992;48.170;8.596;2023-08-08T06:26:16;1.67;;;1.20;;
21661;SDS011;10992;48.170;8.596;2023-08-08T06:28:42;1.30;;;0.88;;
21661;SDS011;10992;48.170;8.596;2023-08-08T06:31:09;1.27;;;1.02;;
21661;SDS011;10992;48.170;8.596;2023-08-08T06:33:36;3.17;;;1.10;;
21661;SDS011;10992;48.170;8.596;2023-08-08T06:36:03;2.00;;;1.08;;
21661;SDS011;10992;48.170;8.596;2023-08-08T06:38:30;2.95;;;1.02;;
21661;SDS011;10992;48.170;8.596;2023-08-08T06:41:01;2.08;;;1.20;;
21661;SDS011;10992;48.170;8.596;2023-08-08T06:43:29;2.75;;;1.10;;
21661;SDS011;10992;48.170;8.596;2023-08-08T06:45:57;1.35;;;1.13;;
21661;SDS011;10992;48.170;8.596;2023-08-08T06:48:24;2.22;;;1.20;;
21661;SDS011;10992;48.170;8.596;2023-08-08T06:50:51;4.30;;;1.00;;
21661;SDS011;10992;48.170;8.596;2023-08-08T06:53:18;2.85;;;1.02;;
21661;SDS011;10992;48.170;8.596;2023-08-08T06:55:45;1.73;;;0.90;;
21661;SDS011;10992;48.170;8.596;2023-08-08T06:58:12;2.28;;;1.10;;
21661;SDS011;10992;48.170;8.596;2023-08-08T07:00:39;1.70;;;1.00;;
21661;SDS011;10992;48.170;8.596;2023-08-08T07:03:06;1.50;;;0.85;;
21661;SDS011;10992;48.170;8.596;2023-08-08T07:05:33;1.30;;;0.90;;
21661;SDS011;10992;48.170;8.596;2023-08-08T07:08:04;3.00;;;0.98;;
21661;SDS011;10992;48.170;8.596;2023-08-08T07:10:31;1.73;;;0.90;;
21661;SDS011;10992;48.170;8.596;2023-08-08T07:12:58;1.65;;;0.90;;
21661;SDS011;10992;48.170;8.596;2023-08-08T07:15:25;3.35;;;1.08;;
21661;SDS011;10992;48.170;8.596;2023-08-08T07:17:53;2.10;;;0.90;;
21661;SDS011;10992;48.170;8.596;2023-08-08T07:20:20;2.85;;;0.93;;
21661;SDS011;10992;48.170;8.596;2023-08-08T07:22:47;4.13;;;1.30;;
21661;SDS011;10992;48.170;8.596;2023-08-08T07:25:14;2.20;;;0.70;;
21661;SDS011;10992;48.170;8.596;2023-08-08T07:27:41;1.40;;;0.80;;
21661;SDS011;10992;48.170;8.596;2023-08-08T07:30:08;3.50;;;1.17;;
21661;SDS011;10992;48.170;8.596;2023-08-08T07:32:35;2.33;;;1.23;;
21661;SDS011;10992;48.170;8.596;2023-08-08T07:35:02;4.53;;;1.40;;
21661;SDS011;10992;48.170;8.596;2023-08-08T07:37:32;2.53;;;1.67;;
21661;SDS011;10992;48.170;8.596;2023-08-08T07:39:59;3.38;;;0.93;;
21661;SDS011;10992;48.170;8.596;2023-08-08T07:42:26;2.08;;;0.90;;
21661;SDS011;10992;48.170;8.596;2023-08-08T07:44:54;0.98;;;0.70;;
21661;SDS011;10992;48.170;8.596;2023-08-08T07:47:21;4.75;;;0.95;;
21661;SDS011;10992;48.170;8.596;2023-08-08T07:49:48;2.53;;;0.98;;
21661;SDS011;10992;48.170;8.596;2023-08-08T07:52:15;1.48;;;0.95;;
21661;SDS011;10992;48.170;8.596;2023-08-08T07:54:42;2.25;;;0.85;;
21661;SDS011;10992;48.170;8.596;2023-08-08T07:57:09;1.73;;;1.10;;
21661;SDS011;10992;48.170;8.596;2023-08-08T07:59:37;3.15;;;1.45;;
21661;SDS011;10992;48.170;8.596;2023-08-08T08:02:05;3.72;;;1.10;;
21661;SDS011;10992;48.170;8.596;2023-08-08T08:04:33;3.83;;;1.25;;
21661;SDS011;10992;48.170;8.596;2023-08-08T08:07:01;2.95;;;0.73;;
21661;SDS011;10992;48.170;8.596;2023-08-08T08:09:28;6.97;;;1.20;;
21661;SDS011;10992;48.170;8.596;2023-08-08T08:11:55;1.50;;;1.02;;
21661;SDS011;10992;48.170;8.596;2023-08-08T08:14:23;5.57;;;1.15;;
21661;SDS011;10992;48.170;8.596;2023-08-08T08:16:50;3.97;;;1.20;;
21661;SDS011;10992;48.170;8.596;2023-08-08T08:19:18;2.53;;;1.08;;
21661;SDS011;10992;48.170;8.596;2023-08-08T08:21:46;6.25;;;1.20;;
21661;SDS011;10992;48.170;8.596;2023-08-08T08:24:13;7.07;;;2.67;;
21661;SDS011;10992;48.170;8.596;2023-08-08T08:26:42;5.18;;;2.08;;
21661;SDS011;10992;48.170;8.596;2023-08-08T08:29:09;5.20;;;2.38;;
21661;SDS011;10992;48.170;8.596;2023-08-08T08:31:36;2.90;;;1.20;;
21661;SDS011;10992;48.170;8.596;2023-08-08T08:34:03;2.38;;;1.05;;
21661;SDS011;10992;48.170;8.596;2023-08-08T08:36:31;2.28;;;0.80;;
21661;SDS011;10992;48.170;8.596;2023-08-08T08:38:58;2.40;;;0.95;;
21661;SDS011;10992;48.170;8.596;2023-08-08T08:41:26;2.65;;;0.75;;
21661;SDS011;10992;48.170;8.596;2023-08-08T08:43:54;1.92;;;0.70;;
21661;SDS011;10992;48.170;8.596;2023-08-08T08:46:21;2.05;;;1.10;;
21661;SDS011;10992;48.170;8.596;2023-08-08T08:48:51;2.58;;;1.10;;
21661;SDS011;10992;48.170;8.596;2023-08-08T08:51:21;1.15;;;0.70;;
21661;SDS011;10992;48.170;8.596;2023-08-08T08:53:48;2.70;;;1.05;;
21661;SDS011;10992;48.170;8.596;2023-08-08T08:56:15;7.65;;;1.15;;
21661;SDS011;10992;48.170;8.596;2023-08-08T08:58:43;1.80;;;0.88;;
21661;SDS011;10992;48.170;8.596;2023-08-08T09:01:10;2.00;;;0.80;;
21661;SDS011;10992;48.170;8.596;2023-08-08T09:03:37;4.45;;;1.23;;
21661;SDS011;10992;48.170;8.596;2023-08-08T09:06:05;3.10;;;0.75;;
21661;SDS011;10992;48.170;8.596;2023-08-08T09:08:32;1.95;;;0.68;;
21661;SDS011;10992;48.170;8.596;2023-08-08T09:11:02;1.63;;;0.68;;
21661;SDS011;10992;48.170;8.596;2023-08-08T09:13:39;1.10;;;0.68;;
21661;SDS011;10992;48.170;8.596;2023-08-08T09:16:07;2.00;;;0.80;;
21661;SDS011;10992;48.170;8.596;2023-08-08T09:18:38;2.90;;;0.80;;
21661;SDS011;10992;48.170;8.596;2023-08-08T09:21:06;3.40;;;1.30;;
21661;SDS011;10992;48.170;8.596;2023-08-08T09:23:33;3.17;;;1.08;;
21661;SDS011;10992;48.170;8.596;2023-08-08T09:25:59;2.67;;;1.00;;
21661;SDS011;10992;48.170;8.596;2023-08-08T09:28:27;2.35;;;0.90;;
21661;SDS011;10992;48.170;8.596;2023-08-08T09:30:54;2.78;;;0.80;;
21661;SDS011;10992;48.170;8.596;2023-08-08T09:33:21;2.88;;;0.90;;
21661;SDS011;10992;48.170;8.596;2023-08-08T09:35:48;1.95;;;0.65;;
21661;SDS011;10992;48.170;8.596;2023-08-08T09:38:15;1.40;;;0.80;;
21661;SDS011;10992;48.170;8.596;2023-08-08T09:40:42;1.80;;;0.80;;
21661;SDS011;10992;48.170;8.596;2023-08-08T09:43:09;1.20;;;0.60;;
21661;SDS011;10992;48.170;8.596;2023-08-08T09:45:38;2.22;;;1.00;;
21661;SDS011;10992;48.170;8.596;2023-08-08T09:48:08;2.30;;;0.80;;
21661;SDS011;10992;48.170;8.596;2023-08-08T09:50:35;2.08;;;0.68;;
21661;SDS011;10992;48.170;8.596;2023-08-08T09:53:02;1.58;;;0.82;;
21661;SDS011;10992;48.170;8.596;2023-08-08T09:55:32;2.80;;;0.98;;
21661;SDS011;10992;48.170;8.596;2023-08-08T09:58:00;4.47;;;1.15;;
21661;SDS011;10992;48.170;8.596;2023-08-08T10:00:29;1.95;;;1.00;;
21661;SDS011;10992;48.170;8.596;2023-08-08T10:02:57;1.90;;;0.90;;
21661;SDS011;10992;48.170;8.596;2023-08-08T10:05:27;1.50;;;0.75;;
21661;SDS011;10992;48.170;8.596;2023-08-08T10:07:54;1.33;;;0.68;;
21661;SDS011;10992;48.170;8.596;2023-08-08T10:10:22;1.60;;;0.85;;
21661;SDS011;10992;48.170;8.596;2023-08-08T10:12:50;2.65;;;0.80;;
21661;SDS011;10992;48.170;8.596;2023-08-08T10:15:19;1.92;;;0.90;;
21661;SDS011;10992;48.170;8.596;2023-08-08T10:17:52;0.85;;;0.50;;
21661;SDS011;10992;48.170;8.596;2023-08-08T10:20:24;1.17;;;0.70;;
21661;SDS011;10992;48.170;8.596;2023-08-08T10:22:52;1.85;;;0.73;;
21661;SDS011;10992;48.170;8.596;2023-08-08T10:25:25;2.17;;;1.00;;
21661;SDS011;10992;48.170;8.596;2023-08-08T10:28:04;2.17;;;0.98;;
21661;SDS011;10992;48.170;8.596;2023-08-08T10:30:53;2.00;;;0.68;;
21661;SDS011;10992;48.170;8.596;2023-08-08T10:33:38;1.77;;;0.80;;
21661;SDS011;10992;48.170;8.596;2023-08-08T10:36:07;1.60;;;0.73;;
21661;SDS011;10992;48.170;8.596;2023-08-08T10:38:44;1.30;;;0.80;;
21661;SDS011;10992;48.170;8.596;2023-08-08T10:41:16;3.00;;;0.95;;
21661;SDS011;10992;48.170;8.596;2023-08-08T10:43:51;1.40;;;0.70;;
21661;SDS011;10992;48.170;8.596;2023-08-08T10:46:23;2.42;;;0.93;;
21661;SDS011;10992;48.170;8.596;2023-08-08T10:48:52;3.80;;;1.10;;
21661;SDS011;10992;48.170;8.596;2023-08-08T10:51:20;4.65;;;0.90;;
21661;SDS011;10992;48.170;8.596;2023-08-08T10:53:53;2.47;;;0.93;;
21661;SDS011;10992;48.170;8.596;2023-08-08T10:56:22;1.67;;;0.90;;
21661;SDS011;10992;48.170;8.596;2023-08-08T10:58:49;1.38;;;0.90;;
21661;SDS011;10992;48.170;8.596;2023-08-08T11:01:16;1.92;;;0.75;;
21661;SDS011;10992;48.170;8.596;2023-08-08T11:03:44;2.58;;;1.20;;
21661;SDS011;10992;48.170;8.596;2023-08-08T11:06:12;0.85;;;0.65;;
21661;SDS011;10992;48.170;8.596;2023-08-08T11:08:40;2.35;;;1.23;;
21661;SDS011;10992;48.170;8.596;2023-08-08T11:11:07;2.95;;;1.00;;
21661;SDS011;10992;48.170;8.596;2023-08-08T11:13:34;2.67;;;1.23;;
21661;SDS011;10992;48.170;8.596;2023-08-08T11:16:01;3.25;;;0.80;;
21661;SDS011;10992;48.170;8.596;2023-08-08T11:18:28;2.95;;;0.82;;
21661;SDS011;10992;48.170;8.596;2023-08-08T11:20:56;4.68;;;0.80;;
21661;SDS011;10992;48.170;8.596;2023-08-08T11:23:46;0.93;;;0.60;;
21661;SDS011;10992;48.170;8.596;2023-08-08T11:26:16;2.28;;;1.10;;
21661;SDS011;10992;48.170;8.596;2023-08-08T11:28:51;1.95;;;1.20;;
21661;SDS011;10992;48.170;8.596;2023-08-08T11:31:21;2.53;;;1.00;;
21661;SDS011;10992;48.170;8.596;2023-08-08T11:33:48;1.83;;;0.82;;
21661;SDS011;10992;48.170;8.596;2023-08-08T11:36:16;1.27;;;0.70;;
21661;SDS011;10992;48.170;8.596;2023-08-08T11:38:43;3.10;;;1.00;;
21661;SDS011;10992;48.170;8.596;2023-08-08T11:41:10;1.77;;;0.70;;
21661;SDS011;10992;48.170;8.596;2023-08-08T11:43:39;2.42;;;0.90;;
21661;SDS011;10992;48.170;8.596;2023-08-08T11:46:13;2.10;;;0.90;;
21661;SDS011;10992;48.170;8.596;2023-08-08T11:48:41;4.22;;;0.98;;
21661;SDS011;10992;48.170;8.596;2023-08-08T11:51:09;1.70;;;0.80;;
21661;SDS011;10992;48.170;8.596;2023-08-08T11:53:36;1.63;;;1.10;;
21661;SDS011;10992;48.170;8.596;2023-08-08T11:56:16;2.75;;;0.80;;
21661;SDS011;10992;48.170;8.596;2023-08-08T11:58:44;2.08;;;0.90;;
21661;SDS011;10992;48.170;8.596;2023-08-08T12:01:11;3.28;;;1.00;;
21661;SDS011;10992;48.170;8.596;2023-08-08T12:03:40;4.13;;;1.02;;
21661;SDS011;10992;48.170;8.596;2023-08-08T12:06:17;1.10;;;0.80;;
21661;SDS011;10992;48.170;8.596;2023-08-08T12:08:45;0.85;;;0.60;;
21661;SDS011;10992;48.170;8.596;2023-08-08T12:11:14;1.80;;;1.00;;
21661;SDS011;10992;48.170;8.596;2023-08-08T12:13:42;1.75;;;0.90;;
21661;SDS011;10992;48.170;8.596;2023-08-08T12:16:10;2.35;;;1.02;;
21661;SDS011;10992;48.170;8.596;2023-08-08T12:18:43;1.50;;;1.00;;
21661;SDS011;10992;48.170;8.596;2023-08-08T12:21:10;1.88;;;1.10;;
21661;SDS011;10992;48.170;8.596;2023-08-08T12:23:37;1.40;;;0.73;;
21661;SDS011;10992;48.170;8.596;2023-08-08T12:26:05;3.75;;;0.90;;
21661;SDS011;10992;48.170;8.596;2023-08-08T12:28:33;2.30;;;1.00;;
21661;SDS011;10992;48.170;8.596;2023-08-08T12:31:01;2.38;;;1.10;;
21661;SDS011;10992;48.170;8.596;2023-08-08T12:33:28;2.38;;;1.13;;
21661;SDS011;10992;48.170;8.596;2023-08-08T12:35:55;2.83;;;1.05;;
21661;SDS011;10992;48.170;8.596;2023-08-08T12:38:22;3.47;;;1.02;;
21661;SDS011;10992;48.170;8.596;2023-08-08T12:40:49;3.78;;;1.20;;
21661;SDS011;10992;48.170;8.596;2023-08-08T12:43:17;2.78;;;1.10;;
21661;SDS011;10992;48.170;8.596;2023-08-08T12:45:45;2.72;;;1.17;;
21661;SDS011;10992;48.170;8.596;2023-08-08T12:48:12;2.25;;;0.90;;
21661;SDS011;10992;48.170;8.596;2023-08-08T12:50:39;4.05;;;1.23;;
21661;SDS011;10992;48.170;8.596;2023-08-08T12:53:07;1.25;;;1.08;;
21661;SDS011;10992;48.170;8.596;2023-08-08T12:55:34;2.25;;;1.30;;
21661;SDS011;10992;48.170;8.596;2023-08-08T12:58:02;3.17;;;1.08;;
21661;SDS011;10992;48.170;8.596;2023-08-08T13:00:31;2.03;;;0.90;;
21661;SDS011;10992;48.170;8.596;2023-08-08T13:02:59;1.85;;;0.90;;
21661;SDS011;10992;48.170;8.596;2023-08-08T13:05:28;1.33;;;0.80;;
21661;SDS011;10992;48.170;8.596;2023-08-08T13:07:55;4.80;;;1.10;;
21661;SDS011;10992;48.170;8.596;2023-08-08T13:10:22;2.33;;;1.20;;
21661;SDS011;10992;48.170;8.596;2023-08-08T13:12:49;1.88;;;1.02;;
21661;SDS011;10992;48.170;8.596;2023-08-08T13:15:17;1.40;;;1.00;;
21661;SDS011;10992;48.170;8.596;2023-08-08T13:17:44;2.72;;;1.05;;
21661;SDS011;10992;48.170;8.596;2023-08-08T13:20:11;1.60;;;0.75;;
21661;SDS011;10992;48.170;8.596;2023-08-08T13:22:38;3.92;;;1.10;;
21661;SDS011;10992;48.170;8.596;2023-08-08T13:25:06;2.00;;;0.90;;
21661;SDS011;10992;48.170;8.596;2023-08-08T13:27:33;3.47;;;1.00;;
21661;SDS011;10992;48.170;8.596;2023-08-08T13:30:00;1.80;;;1.05;;
21661;SDS011;10992;48.170;8.596;2023-08-08T13:32:27;5.53;;;1.05;;
21661;SDS011;10992;48.170;8.596;2023-08-08T13:34:54;4.28;;;1.00;;
21661;SDS011;10992;48.170;8.596;2023-08-08T13:37:22;2.30;;;1.35;;
21661;SDS011;10992;48.170;8.596;2023-08-08T13:39:49;4.80;;;1.55;;
21661;SDS011;10992;48.170;8.596;2023-08-08T13:42:16;2.60;;;1.20;;
21661;SDS011;10992;48.170;8.596;2023-08-08T13:44:43;1.70;;;1.20;;
21661;SDS011;10992;48.170;8.596;2023-08-08T13:47:10;2.88;;;1.50;;
21661;SDS011;10992;48.170;8.596;2023-08-08T13:49:37;2.70;;;0.95;;
21661;SDS011;10992;48.170;8.596;2023-08-08T13:52:04;3.38;;;1.25;;
21661;SDS011;10992;48.170;8.596;2023-08-08T13:54:31;2.45;;;1.05;;
21661;SDS011;10992;48.170;8.596;2023-08-08T13:56:58;2.55;;;1.55;;
21661;SDS011;10992;48.170;8.596;2023-08-08T13:59:25;2.33;;;0.88;;
21661;SDS011;10992;48.170;8.596;2023-08-08T14:01:53;2.78;;;1.10;;
21661;SDS011;10992;48.170;8.596;2023-08-08T14:04:20;1.10;;;0.63;;
21661;SDS011;10992;48.170;8.596;2023-08-08T14:06:47;3.30;;;1.13;;
21661;SDS011;10992;48.170;8.596;2023-08-08T14:09:14;3.90;;;1.35;;
21661;SDS011;10992;48.170;8.596;2023-08-08T14:11:45;2.15;;;1.13;;
21661;SDS011;10992;48.170;8.596;2023-08-08T14:14:11;2.47;;;1.30;;
21661;SDS011;10992;48.170;8.596;2023-08-08T14:16:39;4.03;;;1.13;;
21661;SDS011;10992;48.170;8.596;2023-08-08T14:19:06;1.75;;;1.10;;
21661;SDS011;10992;48.170;8.596;2023-08-08T14:21:33;3.13;;;1.33;;
21661;SDS011;10992;48.170;8.596;2023-08-08T14:24:00;2.25;;;1.15;;
21661;SDS011;10992;48.170;8.596;2023-08-08T14:26:28;2.00;;;1.05;;
21661;SDS011;10992;48.170;8.596;2023-08-08T14:28:55;2.28;;;1.10;;
21661;SDS011;10992;48.170;8.596;2023-08-08T14:31:22;1.70;;;1.20;;
21661;SDS011;10992;48.170;8.596;2023-08-08T14:33:49;3.55;;;1.25;;
21661;SDS011;10992;48.170;8.596;2023-08-08T14:36:16;3.45;;;1.00;;
21661;SDS011;10992;48.170;8.596;2023-08-08T14:38:43;1.65;;;1.10;;
21661;SDS011;10992;48.170;8.596;2023-08-08T14:41:10;3.10;;;1.33;;
21661;SDS011;10992;48.170;8.596;2023-08-08T14:43:37;4.03;;;1.52;;
21661;SDS011;10992;48.170;8.596;2023-08-08T14:46:04;1.92;;;0.90;;
21661;SDS011;10992;48.170;8.596;2023-08-08T14:48:32;3.08;;;1.13;;
21661;SDS011;10992;48.170;8.596;2023-08-08T14:50:59;1.27;;;0.90;;
21661;SDS011;10992;48.170;8.596;2023-08-08T14:53:27;2.55;;;1.42;;